Hanze Genua — PCZB — position and weather

sailwx.info

Track history (hours):
 
Tides and Currents Weather Stations Pressure Air Temp Water Temp Dewpoint Dewpoint Depression Visibility Wind Speed Wind Dir Waves Ship Positions

Hanze Genua

Last reported at 2018-Feb-18 11:12 UTC. Time now 2018-Feb-21 13:27 UTC.
Position N 60°01' E 029°01'.

Length 180 m; draft 10.2 m.

Type: Cargo ship. MMSI: 244830401.

Date/timePositionNaut miles runAvg speedWind from/ knotsBaromVisibWave heightAir tempDewpointWater temp
2018-Feb-18 11:12N 60°01' E 029°01'212.7
2018-Feb-18 11:01N 60°01' E 028°57'612.3
2018-Feb-18 10:30N 60°02' E 028°44'611.4
2018-Feb-18 10:00N 60°02' E 028°33'510.5
2018-Feb-18 09:31N 60°04' E 028°23'611.6
2018-Feb-18 09:00N 60°07' E 028°13'611.8
2018-Feb-18 08:30N 60°08' E 028°01'611.7
2018-Feb-18 08:00N 60°09' E 027°50'611.2
2018-Feb-18 07:30N 60°08' E 027°38'510.2
2018-Feb-18 07:00N 60°05' E 027°30'510.0
2018-Feb-18 06:30N 60°03' E 027°21'510.7
2018-Feb-18 06:00N 60°00' E 027°11'510.6
2018-Feb-18 05:30N 59°58' E 027°02'611.5
2018-Feb-18 05:00N 59°59' E 026°51'611.4
2018-Feb-18 04:30N 59°60' E 026°39'612.1
2018-Feb-18 04:01N 59°58' E 026°28'611.3
2018-Feb-18 03:30N 59°56' E 026°17'1510.9
2018-Feb-18 02:06N 59°52' E 025°48'110.7
2018-Feb-18 02:01N 59°52' E 025°46'510.8
2018-Feb-18 01:30N 59°51' E 025°35'811.0
2018-Feb-18 00:45N 59°49' E 025°19'311.0
2018-Feb-18 00:30N 59°49' E 025°14'510.9
2018-Feb-18 00:00N 59°47' E 025°03'510.9
2018-Feb-17 23:30N 59°46' E 024°53'511.0
2018-Feb-17 23:01N 59°45' E 024°42'611.0
2018-Feb-17 22:30N 59°44' E 024°31'611.2
2018-Feb-17 22:00N 59°43' E 024°20'611.2
2018-Feb-17 21:26N 59°41' E 024°08'511.4
2018-Feb-17 21:00N 59°40' E 023°59'611.6
2018-Feb-17 20:30N 59°38' E 023°48'611.5
2018-Feb-17 20:00N 59°36' E 023°37'611.4
2018-Feb-17 19:30N 59°34' E 023°27'611.2
2018-Feb-17 19:00N 59°32' E 023°16'611.5
2018-Feb-17 18:30N 59°30' E 023°06'30410.7
2018-Feb-16 13:57N 55°47' E 016°40'611.5
2018-Feb-16 13:27N 55°45' E 016°30'511.6
2018-Feb-16 13:00N 55°44' E 016°21'611.7
2018-Feb-16 12:30N 55°42' E 016°11'611.7
2018-Feb-16 12:00N 55°41' E 016°01'611.7
2018-Feb-16 11:30N 55°40' E 015°51'611.7
2018-Feb-16 11:00N 55°38' E 015°41'611.8
2018-Feb-16 10:30N 55°37' E 015°31'611.7
2018-Feb-16 10:00N 55°34' E 015°21'611.8
2018-Feb-16 09:30N 55°32' E 015°12'611.8
2018-Feb-16 09:00N 55°29' E 015°02'611.7
2018-Feb-16 08:29N 55°27' E 014°52'511.6
2018-Feb-16 08:00N 55°25' E 014°43'611.2
2018-Feb-16 07:30N 55°21' E 014°36'611.8
2018-Feb-16 07:00N 55°16' E 014°30'611.7
2018-Feb-16 06:30N 55°12' E 014°23'612.1
2018-Feb-16 06:00N 55°07' E 014°17'612.2
2018-Feb-16 05:30N 55°02' E 014°10'7212.0
2018-Feb-15 23:32N 54°34' E 012°16'111.6
2018-Feb-15 23:25N 54°32' E 012°15'711.7
2018-Feb-15 22:51N 54°26' E 012°11'4 9.8
2018-Feb-15 22:26N 54°25' E 012°04'1310.8
2018-Feb-15 21:17N 54°26' E 011°43'311.3
2018-Feb-15 20:59N 54°27' E 011°38'611.2
2018-Feb-15 20:30N 54°30' E 011°29'510.8
2018-Feb-15 20:00N 54°32' E 011°21'510.5
2018-Feb-15 19:30N 54°34' E 011°13'510.4
2018-Feb-15 19:01N 54°35' E 011°04'510.0
2018-Feb-15 18:30N 54°37' E 010°56'510.3
2018-Feb-15 18:01N 54°40' E 010°48'4 8.5
2018-Feb-15 17:30N 54°44' E 010°46'4 8.9
2018-Feb-15 17:00N 54°48' E 010°50'4 8.5
2018-Feb-15 16:30N 54°52' E 010°50'4 8.1
2018-Feb-15 16:00N 54°56' E 010°52'4 8.5
2018-Feb-15 15:30N 54°59' E 010°58'5 9.5
2018-Feb-15 15:01N 55°03' E 010°60'5 9.3
2018-Feb-15 14:30N 55°08' E 010°59'4 8.0
2018-Feb-15 14:00N 55°11' E 011°03'4 7.9
2018-Feb-15 13:30N 55°15' E 011°05'6 8.8
2018-Feb-15 12:50N 55°21' E 011°02'108 8.8
2018-Feb-15 00:33N 57°07' E 011°38'010.0
2018-Feb-15 00:30N 57°07' E 011°38'5 9.9
2018-Feb-15 00:00N 57°12' E 011°35'5 9.4
2018-Feb-14 23:30N 57°16' E 011°32'5 9.5
2018-Feb-14 23:00N 57°21' E 011°29'510.3
2018-Feb-14 22:30N 57°25' E 011°25'510.4
2018-Feb-14 22:00N 57°30' E 011°20'5 9.8
2018-Feb-14 21:30N 57°33' E 011°13'5 9.8
2018-Feb-14 21:00N 57°36' E 011°05'611.1
2018-Feb-14 20:30N 57°37' E 010°55'510.5
2018-Feb-14 20:01N 57°39' E 010°47'4 8.9
2018-Feb-14 19:30N 57°41' E 010°39'1 1.6
2018-Feb-14 19:00N 57°42' E 010°38'0 0.0
2018-Feb-14 18:30N 57°42' E 010°38'0 0.0
2018-Feb-14 18:00N 57°42' E 010°38'0 0.0
2018-Feb-14 17:30N 57°42' E 010°38'0 0.0
2018-Feb-14 17:00N 57°42' E 010°38'0 0.0
2018-Feb-14 16:27N 57°42' E 010°38'0 0.0
2018-Feb-14 16:00N 57°42' E 010°38'0 0.0
2018-Feb-14 15:27N 57°42' E 010°38'0 0.0
2018-Feb-14 15:00N 57°42' E 010°38'0 0.0
2018-Feb-14 14:30N 57°42' E 010°38'0 0.3
2018-Feb-14 14:00N 57°42' E 010°38'2 4.0
2018-Feb-14 13:30N 57°43' E 010°41'3 5.8
2018-Feb-14 13:00N 57°45' E 010°45'4 9.0
2018-Feb-14 12:30N 57°48' E 010°39'713.2
2018-Feb-14 12:00N 57°48' E 010°26'713.2
2018-Feb-14 11:30N 57°47' E 010°14'713.4
2018-Feb-14 11:00N 57°45' E 010°02'2313.1
2018-Feb-14 09:15N 57°40' E 009°20'2313.1
2018-Feb-14 07:29N 57°29' E 008°42'29912.4
2018-Feb-13 07:18N 53°08' E 004°27'512.4
2018-Feb-13 06:53N 53°03' E 004°24'512.3
2018-Feb-13 06:28N 52°58' E 004°20'612.5
2018-Feb-13 06:00N 52°53' E 004°16'712.4
2018-Feb-13 05:24N 52°47' E 004°10'512.6
2018-Feb-13 05:00N 52°43' E 004°04'1512.8
2018-Feb-13 03:48N 52°32' E 003°46'413.1
2018-Feb-13 03:29N 52°29' E 003°41'713.2
2018-Feb-13 02:59N 52°25' E 003°33'613.3
2018-Feb-13 02:30N 52°20' E 003°26'4913.7
2018-Feb-12 22:54N 51°44' E 002°31'613.8
2018-Feb-12 22:29N 51°40' E 002°25'713.5
2018-Feb-12 21:59N 51°35' E 002°18'713.3
2018-Feb-12 21:30N 51°30' E 002°11'613.1
2018-Feb-12 21:00N 51°25' E 002°04'612.9
2018-Feb-12 20:30N 51°20' E 001°58'612.5
2018-Feb-12 20:01N 51°15' E 001°52'612.2
2018-Feb-12 19:30N 51°10' E 001°46'611.5
2018-Feb-12 19:00N 51°05' E 001°41'611.0
2018-Feb-12 18:30N 51°01' E 001°35'611.1
2018-Feb-12 18:00N 50°57' E 001°30'610.8
2018-Feb-12 17:29N 50°52' E 001°25'610.7
2018-Feb-12 16:53N 50°46' E 001°22'510.7
2018-Feb-12 16:27N 50°42' E 001°19'3511.3
2018-Feb-12 13:22N 50°25' E 000°31'411.7
2018-Feb-12 12:59N 50°24' E 000°24'611.6
2018-Feb-12 12:30N 50°23' E 000°16'611.6
2018-Feb-12 12:00N 50°21' E 000°07'611.7
2018-Feb-12 11:30N 50°20' W 000°02'611.7
2018-Feb-12 11:00N 50°18' W 000°11'1511.6
2018-Feb-12 09:40N 50°15' W 000°34'2112.6
2018-Feb-12 08:02N 50°08' W 001°05'013.3
2018-Feb-12 08:00N 50°08' W 001°05'713.7
2018-Feb-12 07:30N 50°06' W 001°16'714.0
2018-Feb-12 07:00N 50°04' W 001°26'714.4
2018-Feb-12 06:30N 50°02' W 001°37'714.5
2018-Feb-12 06:01N 49°60' W 001°47'714.5
2018-Feb-12 05:30N 49°59' W 001°59'3313.8
2018-Feb-12 03:07N 49°49' W 002°47'213.0
2018-Feb-12 03:00N 49°49' W 002°50'612.6
2018-Feb-12 02:30N 49°46' W 002°59'912.4
2018-Feb-12 01:45N 49°41' W 003°11'312.3
2018-Feb-12 01:30N 49°40' W 003°15'6911.2
2018-Feb-11 19:23N 49°05' W 004°46'7 9.8
2018-Feb-11 18:38N 49°02' W 004°56'1910.7
2018-Feb-11 16:55N 48°53' W 005°20'711.2
2018-Feb-11 16:17N 48°49' W 005°30'511.1
2018-Feb-11 15:50N 48°46' W 005°36'411.0
2018-Feb-11 15:28N 48°44' W 005°41'8 9.7
2018-Feb-11 14:38N 48°37' W 005°47'210.8
2018-Feb-11 14:25N 48°35' W 005°49'  
Track history (hours):
 
Tides and Currents Weather Stations Pressure Air Temp Water Temp Dewpoint Dewpoint Depression Visibility Wind Speed Wind Dir Waves Ship Positions

Hanze Genua

Last reported at 2018-Feb-18 11:12 UTC. Time now 2018-Feb-21 13:27 UTC.
Position N 60°01' E 029°01'.

Length 180 m; draft 10.2 m.

Type: Cargo ship. MMSI: 244830401.

Date/timePositionNaut miles runAvg speedWind from/ knotsBaromVisibWave heightAir tempDewpointWater temp
2018-Feb-18 11:12N 60°01' E 029°01'212.7
2018-Feb-18 11:01N 60°01' E 028°57'612.3
2018-Feb-18 10:30N 60°02' E 028°44'611.4
2018-Feb-18 10:00N 60°02' E 028°33'510.5
2018-Feb-18 09:31N 60°04' E 028°23'611.6
2018-Feb-18 09:00N 60°07' E 028°13'611.8
2018-Feb-18 08:30N 60°08' E 028°01'611.7
2018-Feb-18 08:00N 60°09' E 027°50'611.2
2018-Feb-18 07:30N 60°08' E 027°38'510.2
2018-Feb-18 07:00N 60°05' E 027°30'510.0
2018-Feb-18 06:30N 60°03' E 027°21'510.7
2018-Feb-18 06:00N 60°00' E 027°11'510.6
2018-Feb-18 05:30N 59°58' E 027°02'611.5
2018-Feb-18 05:00N 59°59' E 026°51'611.4
2018-Feb-18 04:30N 59°60' E 026°39'612.1
2018-Feb-18 04:01N 59°58' E 026°28'611.3
2018-Feb-18 03:30N 59°56' E 026°17'1510.9
2018-Feb-18 02:06N 59°52' E 025°48'110.7
2018-Feb-18 02:01N 59°52' E 025°46'510.8
2018-Feb-18 01:30N 59°51' E 025°35'811.0
2018-Feb-18 00:45N 59°49' E 025°19'311.0
2018-Feb-18 00:30N 59°49' E 025°14'510.9
2018-Feb-18 00:00N 59°47' E 025°03'510.9
2018-Feb-17 23:30N 59°46' E 024°53'511.0
2018-Feb-17 23:01N 59°45' E 024°42'611.0
2018-Feb-17 22:30N 59°44' E 024°31'611.2
2018-Feb-17 22:00N 59°43' E 024°20'611.2
2018-Feb-17 21:26N 59°41' E 024°08'511.4
2018-Feb-17 21:00N 59°40' E 023°59'611.6
2018-Feb-17 20:30N 59°38' E 023°48'611.5
2018-Feb-17 20:00N 59°36' E 023°37'611.4
2018-Feb-17 19:30N 59°34' E 023°27'611.2
2018-Feb-17 19:00N 59°32' E 023°16'611.5
2018-Feb-17 18:30N 59°30' E 023°06'30410.7
2018-Feb-16 13:57N 55°47' E 016°40'611.5
2018-Feb-16 13:27N 55°45' E 016°30'511.6
2018-Feb-16 13:00N 55°44' E 016°21'611.7
2018-Feb-16 12:30N 55°42' E 016°11'611.7
2018-Feb-16 12:00N 55°41' E 016°01'611.7
2018-Feb-16 11:30N 55°40' E 015°51'611.7
2018-Feb-16 11:00N 55°38' E 015°41'611.8
2018-Feb-16 10:30N 55°37' E 015°31'611.7
2018-Feb-16 10:00N 55°34' E 015°21'611.8
2018-Feb-16 09:30N 55°32' E 015°12'611.8
2018-Feb-16 09:00N 55°29' E 015°02'611.7
2018-Feb-16 08:29N 55°27' E 014°52'511.6
2018-Feb-16 08:00N 55°25' E 014°43'611.2
2018-Feb-16 07:30N 55°21' E 014°36'611.8
2018-Feb-16 07:00N 55°16' E 014°30'611.7
2018-Feb-16 06:30N 55°12' E 014°23'612.1
2018-Feb-16 06:00N 55°07' E 014°17'612.2
2018-Feb-16 05:30N 55°02' E 014°10'7212.0
2018-Feb-15 23:32N 54°34' E 012°16'111.6
2018-Feb-15 23:25N 54°32' E 012°15'711.7
2018-Feb-15 22:51N 54°26' E 012°11'4 9.8
2018-Feb-15 22:26N 54°25' E 012°04'1310.8
2018-Feb-15 21:17N 54°26' E 011°43'311.3
2018-Feb-15 20:59N 54°27' E 011°38'611.2
2018-Feb-15 20:30N 54°30' E 011°29'510.8
2018-Feb-15 20:00N 54°32' E 011°21'510.5
2018-Feb-15 19:30N 54°34' E 011°13'510.4
2018-Feb-15 19:01N 54°35' E 011°04'510.0
2018-Feb-15 18:30N 54°37' E 010°56'510.3
2018-Feb-15 18:01N 54°40' E 010°48'4 8.5
2018-Feb-15 17:30N 54°44' E 010°46'4 8.9
2018-Feb-15 17:00N 54°48' E 010°50'4 8.5
2018-Feb-15 16:30N 54°52' E 010°50'4 8.1
2018-Feb-15 16:00N 54°56' E 010°52'4 8.5
2018-Feb-15 15:30N 54°59' E 010°58'5 9.5
2018-Feb-15 15:01N 55°03' E 010°60'5 9.3
2018-Feb-15 14:30N 55°08' E 010°59'4 8.0
2018-Feb-15 14:00N 55°11' E 011°03'4 7.9
2018-Feb-15 13:30N 55°15' E 011°05'6 8.8
2018-Feb-15 12:50N 55°21' E 011°02'108 8.8
2018-Feb-15 00:33N 57°07' E 011°38'010.0
2018-Feb-15 00:30N 57°07' E 011°38'5 9.9
2018-Feb-15 00:00N 57°12' E 011°35'5 9.4
2018-Feb-14 23:30N 57°16' E 011°32'5 9.5
2018-Feb-14 23:00N 57°21' E 011°29'510.3
2018-Feb-14 22:30N 57°25' E 011°25'510.4
2018-Feb-14 22:00N 57°30' E 011°20'5 9.8
2018-Feb-14 21:30N 57°33' E 011°13'5 9.8
2018-Feb-14 21:00N 57°36' E 011°05'611.1
2018-Feb-14 20:30N 57°37' E 010°55'510.5
2018-Feb-14 20:01N 57°39' E 010°47'4 8.9
2018-Feb-14 19:30N 57°41' E 010°39'1 1.6
2018-Feb-14 19:00N 57°42' E 010°38'0 0.0
2018-Feb-14 18:30N 57°42' E 010°38'0 0.0
2018-Feb-14 18:00N 57°42' E 010°38'0 0.0
2018-Feb-14 17:30N 57°42' E 010°38'0 0.0
2018-Feb-14 17:00N 57°42' E 010°38'0 0.0
2018-Feb-14 16:27N 57°42' E 010°38'0 0.0
2018-Feb-14 16:00N 57°42' E 010°38'0 0.0
2018-Feb-14 15:27N 57°42' E 010°38'0 0.0
2018-Feb-14 15:00N 57°42' E 010°38'0 0.0
2018-Feb-14 14:30N 57°42' E 010°38'0 0.3
2018-Feb-14 14:00N 57°42' E 010°38'2 4.0
2018-Feb-14 13:30N 57°43' E 010°41'3 5.8
2018-Feb-14 13:00N 57°45' E 010°45'4 9.0
2018-Feb-14 12:30N 57°48' E 010°39'713.2
2018-Feb-14 12:00N 57°48' E 010°26'713.2
2018-Feb-14 11:30N 57°47' E 010°14'713.4
2018-Feb-14 11:00N 57°45' E 010°02'2313.1
2018-Feb-14 09:15N 57°40' E 009°20'2313.1
2018-Feb-14 07:29N 57°29' E 008°42'29912.4
2018-Feb-13 07:18N 53°08' E 004°27'512.4
2018-Feb-13 06:53N 53°03' E 004°24'512.3
2018-Feb-13 06:28N 52°58' E 004°20'612.5
2018-Feb-13 06:00N 52°53' E 004°16'712.4
2018-Feb-13 05:24N 52°47' E 004°10'512.6
2018-Feb-13 05:00N 52°43' E 004°04'1512.8
2018-Feb-13 03:48N 52°32' E 003°46'413.1
2018-Feb-13 03:29N 52°29' E 003°41'713.2
2018-Feb-13 02:59N 52°25' E 003°33'613.3
2018-Feb-13 02:30N 52°20' E 003°26'4913.7
2018-Feb-12 22:54N 51°44' E 002°31'613.8
2018-Feb-12 22:29N 51°40' E 002°25'713.5
2018-Feb-12 21:59N 51°35' E 002°18'713.3
2018-Feb-12 21:30N 51°30' E 002°11'613.1
2018-Feb-12 21:00N 51°25' E 002°04'612.9
2018-Feb-12 20:30N 51°20' E 001°58'612.5
2018-Feb-12 20:01N 51°15' E 001°52'612.2
2018-Feb-12 19:30N 51°10' E 001°46'611.5
2018-Feb-12 19:00N 51°05' E 001°41'611.0
2018-Feb-12 18:30N 51°01' E 001°35'611.1
2018-Feb-12 18:00N 50°57' E 001°30'610.8
2018-Feb-12 17:29N 50°52' E 001°25'610.7
2018-Feb-12 16:53N 50°46' E 001°22'510.7
2018-Feb-12 16:27N 50°42' E 001°19'3511.3
2018-Feb-12 13:22N 50°25' E 000°31'411.7
2018-Feb-12 12:59N 50°24' E 000°24'611.6
2018-Feb-12 12:30N 50°23' E 000°16'611.6
2018-Feb-12 12:00N 50°21' E 000°07'611.7
2018-Feb-12 11:30N 50°20' W 000°02'611.7
2018-Feb-12 11:00N 50°18' W 000°11'1511.6
2018-Feb-12 09:40N 50°15' W 000°34'2112.6
2018-Feb-12 08:02N 50°08' W 001°05'013.3
2018-Feb-12 08:00N 50°08' W 001°05'713.7
2018-Feb-12 07:30N 50°06' W 001°16'714.0
2018-Feb-12 07:00N 50°04' W 001°26'714.4
2018-Feb-12 06:30N 50°02' W 001°37'714.5
2018-Feb-12 06:01N 49°60' W 001°47'714.5
2018-Feb-12 05:30N 49°59' W 001°59'3313.8
2018-Feb-12 03:07N 49°49' W 002°47'213.0
2018-Feb-12 03:00N 49°49' W 002°50'612.6
2018-Feb-12 02:30N 49°46' W 002°59'912.4
2018-Feb-12 01:45N 49°41' W 003°11'312.3
2018-Feb-12 01:30N 49°40' W 003°15'6911.2
2018-Feb-11 19:23N 49°05' W 004°46'7 9.8
2018-Feb-11 18:38N 49°02' W 004°56'1910.7
2018-Feb-11 16:55N 48°53' W 005°20'711.2
2018-Feb-11 16:17N 48°49' W 005°30'511.1
2018-Feb-11 15:50N 48°46' W 005°36'411.0
2018-Feb-11 15:28N 48°44' W 005°41'8 9.7
2018-Feb-11 14:38N 48°37' W 005°47'210.8
2018-Feb-11 14:25N 48°35' W 005°49'  

Dump ship's entire track history